createdAt,value
2018-06-14T00:02:46.433Z,65.50
2018-06-14T00:07:48.952Z,65.60
2018-06-14T00:12:51.488Z,65.10
2018-06-14T00:17:54.134Z,65.20
2018-06-14T00:22:56.662Z,65.80
2018-06-14T00:27:59.231Z,66.10
2018-06-14T00:33:01.785Z,66.20
2018-06-14T00:38:04.326Z,66.20
2018-06-14T00:43:07.631Z,66.20
2018-06-14T00:48:10.178Z,66.20
2018-06-14T00:53:12.721Z,66.20
2018-06-14T00:58:15.265Z,66.60
2018-06-14T01:03:17.803Z,66.40
2018-06-14T01:08:20.357Z,66.50
2018-06-14T01:13:22.894Z,67.00
2018-06-14T01:18:25.456Z,66.80
2018-06-14T01:23:28.007Z,67.00
2018-06-14T01:28:30.571Z,67.10
2018-06-14T01:33:33.126Z,66.90
2018-06-14T01:38:35.685Z,66.90
2018-06-14T01:43:38.218Z,67.20
2018-06-14T01:48:40.789Z,67.00
2018-06-14T01:53:43.311Z,67.30
2018-06-14T01:58:45.865Z,67.20
2018-06-14T02:03:48.398Z,67.50
2018-06-14T02:08:50.957Z,67.70
2018-06-14T02:13:53.497Z,67.50
2018-06-14T02:18:56.066Z,67.60
2018-06-14T02:23:58.607Z,67.90
2018-06-14T02:29:01.162Z,67.90
2018-06-14T02:34:03.692Z,68.40
2018-06-14T02:39:06.329Z,68.30
2018-06-14T02:44:08.877Z,68.30
2018-06-14T02:49:11.436Z,68.40
2018-06-14T02:54:13.984Z,68.50
2018-06-14T02:59:16.533Z,68.60
2018-06-14T03:04:19.095Z,69.00
2018-06-14T03:09:21.640Z,68.70
2018-06-14T03:14:24.175Z,68.70
2018-06-14T03:19:27.102Z,69.00
2018-06-14T03:24:29.648Z,68.00
2018-06-14T03:29:32.204Z,69.30
2018-06-14T03:34:34.731Z,69.30
2018-06-14T03:39:37.269Z,69.30
2018-06-14T03:44:39.802Z,69.50
2018-06-14T03:49:42.336Z,69.20
2018-06-14T03:54:44.863Z,69.40
2018-06-14T03:59:47.398Z,69.60
2018-06-14T04:04:49.953Z,69.60
2018-06-14T04:09:52.501Z,69.40
2018-06-14T04:14:55.038Z,69.70
2018-06-14T04:19:58.355Z,69.50
2018-06-14T04:25:01.692Z,70.00
2018-06-14T04:30:04.227Z,69.80
2018-06-14T04:35:06.754Z,69.70
2018-06-14T04:40:09.288Z,70.20
2018-06-14T04:45:12.606Z,70.30
2018-06-14T04:50:15.170Z,71.00
2018-06-14T04:55:19.220Z,70.30
2018-06-14T05:00:22.539Z,70.40
2018-06-14T05:05:25.833Z,70.20
2018-06-14T05:10:28.369Z,70.20
2018-06-14T05:15:32.660Z,70.50
2018-06-14T05:20:35.201Z,70.40
2018-06-14T05:25:37.734Z,70.40
2018-06-14T05:30:40.255Z,70.40
2018-06-14T05:35:42.797Z,70.70
2018-06-14T05:40:45.332Z,70.80
2018-06-14T05:45:47.865Z,70.90
2018-06-14T05:50:50.416Z,70.70
2018-06-14T05:55:52.936Z,70.70
2018-06-14T06:00:55.462Z,71.00
2018-06-14T06:05:58.016Z,71.00
2018-06-14T06:11:00.556Z,71.20
2018-06-14T06:16:03.107Z,71.10
2018-06-14T06:21:05.737Z,70.70
2018-06-14T06:26:08.346Z,70.80
2018-06-14T06:31:10.810Z,70.80
2018-06-14T06:36:13.385Z,71.00
2018-06-14T06:41:15.987Z,71.00
2018-06-14T06:46:18.509Z,70.90
2018-06-14T06:51:21.821Z,71.00
2018-06-14T06:56:24.359Z,70.90
2018-06-14T07:01:26.906Z,70.90
2018-06-14T07:06:30.249Z,70.90
2018-06-14T07:11:32.806Z,70.90
2018-06-14T07:16:36.062Z,70.40
2018-06-14T07:21:38.607Z,70.40
2018-06-14T07:26:41.124Z,70.50
2018-06-14T07:31:43.660Z,70.40
2018-06-14T07:36:46.188Z,70.30
2018-06-14T07:41:48.725Z,70.10
2018-06-14T07:46:51.268Z,70.20
2018-06-14T07:51:53.803Z,70.60
2018-06-14T07:56:56.332Z,70.50
2018-06-14T08:01:58.916Z,70.30
2018-06-14T08:07:01.460Z,69.60
2018-06-14T08:12:03.989Z,68.90
2018-06-14T08:17:06.534Z,69.60
2018-06-14T08:22:09.870Z,69.50
2018-06-14T08:27:12.419Z,69.40
2018-06-14T08:32:14.959Z,69.00
2018-06-14T08:37:17.497Z,68.10
2018-06-14T08:42:20.022Z,68.00
2018-06-14T08:47:22.585Z,69.00
2018-06-14T08:52:25.124Z,68.80
2018-06-14T08:57:27.655Z,69.00
2018-06-14T09:02:30.182Z,68.00
2018-06-14T09:07:32.731Z,68.20
2018-06-14T09:12:35.267Z,66.90
2018-06-14T09:17:37.796Z,65.80
2018-06-14T09:22:40.333Z,64.60
2018-06-14T09:27:42.898Z,63.90
2018-06-14T09:32:45.497Z,63.40
2018-06-14T09:37:48.043Z,63.50
2018-06-14T09:42:50.632Z,63.40
2018-06-14T09:47:53.131Z,62.00
2018-06-14T09:52:55.661Z,62.20
2018-06-14T09:57:58.196Z,62.10
2018-06-14T10:03:00.732Z,60.50
2018-06-14T10:08:03.291Z,60.20
2018-06-14T10:13:05.889Z,61.70
2018-06-14T10:18:08.422Z,60.00
2018-06-14T10:23:10.995Z,60.50
2018-06-14T10:28:13.530Z,59.60
2018-06-14T10:33:16.060Z,59.60
2018-06-14T10:38:18.595Z,59.30
2018-06-14T10:43:21.148Z,59.10
2018-06-14T10:48:23.762Z,58.50
2018-06-14T10:53:26.296Z,59.10
2018-06-14T10:58:28.845Z,59.00
2018-06-14T11:03:31.404Z,59.00
2018-06-14T11:08:34.064Z,58.90
2018-06-14T11:13:36.609Z,58.40
2018-06-14T11:18:39.143Z,58.90
2018-06-14T11:23:41.683Z,59.00
2018-06-14T11:28:44.221Z,58.90
2018-06-14T11:33:46.762Z,58.40
2018-06-14T11:38:49.299Z,58.80
2018-06-14T11:43:51.931Z,58.40
2018-06-14T11:48:54.481Z,58.80
2018-06-14T11:53:57.059Z,58.60
2018-06-14T11:58:59.620Z,58.80
2018-06-14T12:04:02.153Z,58.90
2018-06-14T12:09:04.684Z,59.20
2018-06-14T12:14:07.235Z,59.10
2018-06-14T12:19:09.792Z,58.90
2018-06-14T12:24:12.351Z,58.80
2018-06-14T12:29:14.884Z,58.60
2018-06-14T12:34:17.443Z,58.10
2018-06-14T12:39:19.987Z,58.30
2018-06-14T12:44:22.533Z,58.50
2018-06-14T12:49:25.848Z,57.20
2018-06-14T12:54:29.157Z,57.00
2018-06-14T12:59:31.719Z,57.00
2018-06-14T13:04:34.261Z,57.40
2018-06-14T13:09:37.586Z,57.20
2018-06-14T13:14:40.131Z,57.20
2018-06-14T13:19:42.695Z,56.90
2018-06-14T13:24:45.228Z,57.00
2018-06-14T13:29:47.774Z,56.90
2018-06-14T13:34:50.352Z,56.60
2018-06-14T13:39:52.975Z,56.10
2018-06-14T13:44:55.527Z,56.60
2018-06-14T13:49:58.064Z,56.40
2018-06-14T13:55:00.607Z,56.10
2018-06-14T14:00:03.145Z,56.20
2018-06-14T14:05:05.701Z,55.90
2018-06-14T14:10:08.223Z,56.20
2018-06-14T14:15:10.748Z,55.60
2018-06-14T14:20:13.284Z,55.60
2018-06-14T14:25:15.915Z,55.30
2018-06-14T14:30:18.449Z,55.10
2018-06-14T14:35:22.028Z,55.70
2018-06-14T14:40:24.629Z,55.40
2018-06-14T14:45:27.169Z,55.20
2018-06-14T14:50:29.734Z,54.60
2018-06-14T14:55:32.985Z,54.40
2018-06-14T15:00:35.513Z,54.20
2018-06-14T15:05:38.063Z,54.60
2018-06-14T15:10:40.626Z,55.40
2018-06-14T15:15:43.167Z,55.80
2018-06-14T15:20:45.711Z,55.10
2018-06-14T15:25:48.247Z,55.20
2018-06-14T15:30:50.806Z,55.40
2018-06-14T15:35:53.349Z,55.30
2018-06-14T15:40:55.884Z,55.70
2018-06-14T15:45:58.469Z,55.90
2018-06-14T15:51:01.024Z,56.50
2018-06-14T15:56:03.557Z,55.50
2018-06-14T16:01:06.101Z,55.60
2018-06-14T16:06:08.638Z,55.70
2018-06-14T16:11:11.194Z,55.60
2018-06-14T16:16:13.745Z,55.50
2018-06-14T16:21:16.372Z,55.90
2018-06-14T16:26:18.861Z,56.00
2018-06-14T16:31:21.384Z,55.70
2018-06-14T16:36:23.920Z,55.30
2018-06-14T16:41:26.902Z,55.40
2018-06-14T16:46:29.463Z,55.70
2018-06-14T16:51:32.026Z,55.50
2018-06-14T16:56:34.574Z,55.80
2018-06-14T17:01:37.161Z,55.70
2018-06-14T17:06:40.577Z,55.80
2018-06-14T17:11:43.180Z,56.00
2018-06-14T17:16:46.492Z,55.30
2018-06-14T17:21:49.024Z,55.70
2018-06-14T17:26:51.612Z,56.30
2018-06-14T17:31:54.161Z,56.60
2018-06-14T17:36:57.679Z,56.50
2018-06-14T17:42:00.426Z,56.40
2018-06-14T17:47:03.810Z,56.60
2018-06-14T17:52:07.098Z,57.20
2018-06-14T17:57:09.643Z,57.20
2018-06-14T18:02:12.172Z,56.70
2018-06-14T18:07:14.751Z,56.60
2018-06-14T18:12:17.319Z,56.70
2018-06-14T18:17:19.880Z,57.00
2018-06-14T18:22:22.439Z,56.80
2018-06-14T18:27:24.983Z,56.70
2018-06-14T18:32:27.517Z,57.00
2018-06-14T18:37:30.977Z,57.50
2018-06-14T18:42:33.556Z,57.30
2018-06-14T18:47:36.148Z,57.60
2018-06-14T18:52:38.702Z,58.10
2018-06-14T18:57:42.027Z,58.10
2018-06-14T19:02:44.586Z,58.20
2018-06-14T19:07:47.132Z,58.10
2018-06-14T19:12:49.700Z,58.20
2018-06-14T19:17:52.302Z,58.30
2018-06-14T19:22:54.868Z,58.50
2018-06-14T19:27:57.409Z,58.80
2018-06-14T19:33:01.178Z,59.40
2018-06-14T19:38:03.786Z,59.80
2018-06-14T19:43:07.699Z,60.40
2018-06-14T19:48:10.428Z,60.70
2018-06-14T19:53:13.025Z,61.00
2018-06-14T19:58:17.934Z,61.60
2018-06-14T20:03:20.524Z,62.50
2018-06-14T20:08:23.117Z,62.90
2018-06-14T20:13:25.669Z,63.00
2018-06-14T20:18:28.224Z,62.90
2018-06-14T20:23:30.778Z,63.50
2018-06-14T20:28:33.320Z,63.40
2018-06-14T20:33:35.866Z,64.00
2018-06-14T20:38:39.181Z,64.00
2018-06-14T20:43:42.515Z,64.20
2018-06-14T20:48:45.105Z,64.00
2018-06-14T20:53:47.637Z,64.00
2018-06-14T20:58:50.206Z,64.30
2018-06-14T21:03:52.741Z,64.30
2018-06-14T21:08:55.281Z,64.60
2018-06-14T21:13:57.848Z,64.70
2018-06-14T21:19:00.396Z,64.70
2018-06-14T21:24:02.937Z,65.10
2018-06-14T21:29:05.476Z,65.10
2018-06-14T21:34:08.027Z,65.50
2018-06-14T21:39:10.603Z,65.90
2018-06-14T21:44:13.137Z,66.00
2018-06-14T21:49:15.696Z,65.90
2018-06-14T21:54:19.013Z,66.30
2018-06-14T21:59:21.567Z,66.20
2018-06-14T22:04:24.118Z,66.40
2018-06-14T22:09:26.662Z,66.50
2018-06-14T22:14:29.213Z,66.40
2018-06-14T22:19:31.884Z,66.80
2018-06-14T22:24:34.473Z,66.80
2018-06-14T22:29:36.999Z,67.10
2018-06-14T22:35:05.077Z,67.50
2018-06-14T22:40:07.630Z,67.20
2018-06-14T22:45:10.185Z,67.80
2018-06-14T22:50:12.729Z,67.40
2018-06-14T22:55:15.324Z,68.20
2018-06-14T23:00:17.899Z,67.30
2018-06-14T23:05:21.526Z,67.90
2018-06-14T23:10:47.695Z,67.90
2018-06-14T23:15:50.262Z,68.30
2018-06-14T23:20:53.639Z,69.20
2018-06-14T23:25:56.214Z,69.20
2018-06-14T23:30:59.557Z,69.50
2018-06-14T23:36:02.102Z,69.50
2018-06-14T23:41:04.639Z,69.70
2018-06-14T23:46:07.189Z,70.00
2018-06-14T23:51:09.756Z,70.10
2018-06-14T23:56:12.292Z,70.10
